sensor_id;sensor_type;location;lat;lon;timestamp;pressure;altitude;pressure_sealevel;temperature;humidity
73297;BME280;61524;50.938;11.396;2023-04-10T00:00:31;99915.22;;;3.01;85.87
73297;BME280;61524;50.938;11.396;2023-04-10T00:02:59;99911.81;;;2.93;85.75
73297;BME280;61524;50.938;11.396;2023-04-10T00:05:28;99913.94;;;2.97;85.72
73297;BME280;61524;50.938;11.396;2023-04-10T00:07:53;99909.47;;;2.98;85.63
73297;BME280;61524;50.938;11.396;2023-04-10T00:10:19;99912.03;;;2.83;85.95
73297;BME280;61524;50.938;11.396;2023-04-10T00:12:45;99899.06;;;2.73;86.14
73297;BME280;61524;50.938;11.396;2023-04-10T00:15:11;99894.47;;;2.75;86.00
73297;BME280;61524;50.938;11.396;2023-04-10T00:17:36;99897.69;;;2.85;85.57
73297;BME280;61524;50.938;11.396;2023-04-10T00:20:01;99896.00;;;2.93;85.51
73297;BME280;61524;50.938;11.396;2023-04-10T00:22:29;99883.63;;;2.93;86.33
73297;BME280;61524;50.938;11.396;2023-04-10T00:24:54;99882.50;;;2.87;86.41
73297;BME280;61524;50.938;11.396;2023-04-10T00:27:20;99891.19;;;2.96;86.19
73297;BME280;61524;50.938;11.396;2023-04-10T00:29:45;99880.34;;;2.91;86.47
73297;BME280;61524;50.938;11.396;2023-04-10T00:32:11;99884.63;;;2.69;87.81
73297;BME280;61524;50.938;11.396;2023-04-10T00:34:36;99880.97;;;2.70;86.86
73297;BME280;61524;50.938;11.396;2023-04-10T00:37:01;99874.13;;;2.53;87.00
73297;BME280;61524;50.938;11.396;2023-04-10T00:39:27;99867.44;;;2.42;87.59
73297;BME280;61524;50.938;11.396;2023-04-10T00:41:52;99877.84;;;2.35;86.38
73297;BME280;61524;50.938;11.396;2023-04-10T00:44:18;99877.47;;;2.47;85.85
73297;BME280;61524;50.938;11.396;2023-04-10T00:46:43;99865.09;;;2.47;85.71
73297;BME280;61524;50.938;11.396;2023-04-10T00:49:09;99868.44;;;2.41;86.70
73297;BME280;61524;50.938;11.396;2023-04-10T00:51:38;99865.06;;;2.24;86.81
73297;BME280;61524;50.938;11.396;2023-04-10T00:54:03;99864.06;;;2.25;87.75
73297;BME280;61524;50.938;11.396;2023-04-10T00:56:30;99867.78;;;2.39;86.11
73297;BME280;61524;50.938;11.396;2023-04-10T00:58:58;99872.28;;;2.30;86.08
73297;BME280;61524;50.938;11.396;2023-04-10T01:01:24;99868.41;;;2.18;86.73
73297;BME280;61524;50.938;11.396;2023-04-10T01:03:49;99862.47;;;2.16;86.92
73297;BME280;61524;50.938;11.396;2023-04-10T01:12:07;99863.75;;;2.20;85.91
73297;BME280;61524;50.938;11.396;2023-04-10T01:15:14;99867.09;;;2.14;86.78
73297;BME280;61524;50.938;11.396;2023-04-10T01:20:42;99854.97;;;2.05;87.54
73297;BME280;61524;50.938;11.396;2023-04-10T01:25:55;99860.38;;;2.03;88.16
73297;BME280;61524;50.938;11.396;2023-04-10T01:28:24;99862.31;;;2.09;87.96
73297;BME280;61524;50.938;11.396;2023-04-10T01:30:53;99864.81;;;2.11;87.37
73297;BME280;61524;50.938;11.396;2023-04-10T01:33:21;99847.41;;;1.94;88.01
73297;BME280;61524;50.938;11.396;2023-04-10T01:35:54;99856.38;;;2.16;87.06
73297;BME280;61524;50.938;11.396;2023-04-10T01:38:23;99858.19;;;2.15;86.93
73297;BME280;61524;50.938;11.396;2023-04-10T01:40:52;99863.94;;;2.19;85.91
73297;BME280;61524;50.938;11.396;2023-04-10T01:43:19;99859.19;;;2.14;86.70
73297;BME280;61524;50.938;11.396;2023-04-10T01:45:47;99860.59;;;2.25;86.98
73297;BME280;61524;50.938;11.396;2023-04-10T01:48:15;99845.00;;;2.15;85.98
73297;BME280;61524;50.938;11.396;2023-04-10T01:50:44;99845.09;;;2.30;85.86
73297;BME280;61524;50.938;11.396;2023-04-10T01:53:10;99850.06;;;2.25;85.72
73297;BME280;61524;50.938;11.396;2023-04-10T01:55:36;99843.72;;;2.11;86.01
73297;BME280;61524;50.938;11.396;2023-04-10T01:58:02;99847.19;;;2.03;86.92
73297;BME280;61524;50.938;11.396;2023-04-10T02:00:29;99847.06;;;1.97;87.64
73297;BME280;61524;50.938;11.396;2023-04-10T02:02:55;99846.63;;;1.77;87.45
73297;BME280;61524;50.938;11.396;2023-04-10T02:05:22;99843.78;;;1.95;87.44
73297;BME280;61524;50.938;11.396;2023-04-10T02:08:04;99836.34;;;1.98;85.84
73297;BME280;61524;50.938;11.396;2023-04-10T02:10:36;99850.63;;;2.12;86.13
73297;BME280;61524;50.938;11.396;2023-04-10T02:13:10;99834.63;;;2.14;85.93
73297;BME280;61524;50.938;11.396;2023-04-10T02:15:41;99845.69;;;2.09;85.92
73297;BME280;61524;50.938;11.396;2023-04-10T02:18:09;99843.16;;;1.84;87.08
73297;BME280;61524;50.938;11.396;2023-04-10T02:20:35;99853.34;;;1.88;85.52
73297;BME280;61524;50.938;11.396;2023-04-10T02:23:01;99863.25;;;1.77;86.59
73297;BME280;61524;50.938;11.396;2023-04-10T02:25:32;99863.13;;;1.71;87.12
73297;BME280;61524;50.938;11.396;2023-04-10T02:28:02;99861.00;;;1.66;86.69
73297;BME280;61524;50.938;11.396;2023-04-10T02:30:28;99858.34;;;1.66;86.12
73297;BME280;61524;50.938;11.396;2023-04-10T02:32:53;99863.47;;;1.68;86.35
73297;BME280;61524;50.938;11.396;2023-04-10T02:35:19;99862.13;;;1.72;85.64
73297;BME280;61524;50.938;11.396;2023-04-10T02:37:45;99867.44;;;1.55;86.80
73297;BME280;61524;50.938;11.396;2023-04-10T02:40:11;99862.34;;;1.62;87.41
73297;BME280;61524;50.938;11.396;2023-04-10T02:42:36;99870.34;;;1.77;87.51
73297;BME280;61524;50.938;11.396;2023-04-10T02:45:02;99865.06;;;1.77;86.19
73297;BME280;61524;50.938;11.396;2023-04-10T02:47:28;99872.84;;;1.78;85.95
73297;BME280;61524;50.938;11.396;2023-04-10T02:49:53;99877.59;;;1.83;86.67
73297;BME280;61524;50.938;11.396;2023-04-10T02:52:18;99860.81;;;1.76;86.60
73297;BME280;61524;50.938;11.396;2023-04-10T02:54:44;99875.59;;;1.85;86.45
73297;BME280;61524;50.938;11.396;2023-04-10T02:57:09;99865.06;;;1.77;86.90
73297;BME280;61524;50.938;11.396;2023-04-10T02:59:35;99864.13;;;1.70;87.38
73297;BME280;61524;50.938;11.396;2023-04-10T03:02:00;99857.88;;;1.63;86.97
73297;BME280;61524;50.938;11.396;2023-04-10T03:04:26;99866.66;;;1.39;87.90
73297;BME280;61524;50.938;11.396;2023-04-10T03:06:52;99862.84;;;1.57;87.90
73297;BME280;61524;50.938;11.396;2023-04-10T03:09:18;99865.78;;;1.63;87.76
73297;BME280;61524;50.938;11.396;2023-04-10T03:11:44;99873.84;;;1.61;87.53
73297;BME280;61524;50.938;11.396;2023-04-10T03:14:09;99861.66;;;1.60;87.38
73297;BME280;61524;50.938;11.396;2023-04-10T03:16:35;99878.28;;;1.69;88.00
73297;BME280;61524;50.938;11.396;2023-04-10T03:19:00;99886.69;;;1.72;87.55
73297;BME280;61524;50.938;11.396;2023-04-10T03:21:26;99877.25;;;1.86;87.03
73297;BME280;61524;50.938;11.396;2023-04-10T03:23:51;99876.09;;;1.80;86.60
73297;BME280;61524;50.938;11.396;2023-04-10T03:26:17;99874.16;;;1.74;87.11
73297;BME280;61524;50.938;11.396;2023-04-10T03:28:42;99872.84;;;1.70;87.67
73297;BME280;61524;50.938;11.396;2023-04-10T03:31:08;99873.78;;;1.86;86.86
73297;BME280;61524;50.938;11.396;2023-04-10T03:33:34;99874.97;;;1.83;86.71
73297;BME280;61524;50.938;11.396;2023-04-10T03:36:00;99862.31;;;1.70;86.47
73297;BME280;61524;50.938;11.396;2023-04-10T03:38:26;99871.03;;;1.71;87.09
73297;BME280;61524;50.938;11.396;2023-04-10T03:40:51;99870.34;;;1.77;87.14
73297;BME280;61524;50.938;11.396;2023-04-10T03:43:18;99864.63;;;1.65;87.01
73297;BME280;61524;50.938;11.396;2023-04-10T03:45:43;99865.94;;;1.69;86.63
73297;BME280;61524;50.938;11.396;2023-04-10T03:48:09;99844.91;;;1.53;86.31
73297;BME280;61524;50.938;11.396;2023-04-10T03:50:34;99859.22;;;1.58;87.06
73297;BME280;61524;50.938;11.396;2023-04-10T03:52:59;99866.16;;;1.51;86.97
73297;BME280;61524;50.938;11.396;2023-04-10T03:55:25;99853.97;;;1.42;87.61
73297;BME280;61524;50.938;11.396;2023-04-10T03:57:51;99866.97;;;1.44;87.09
73297;BME280;61524;50.938;11.396;2023-04-10T04:00:17;99865.50;;;1.41;87.80
73297;BME280;61524;50.938;11.396;2023-04-10T04:02:42;99861.22;;;1.40;87.79
73297;BME280;61524;50.938;11.396;2023-04-10T04:05:08;99864.19;;;1.37;87.00
73297;BME280;61524;50.938;11.396;2023-04-10T04:07:34;99852.19;;;1.35;87.14
73297;BME280;61524;50.938;11.396;2023-04-10T04:10:01;99857.94;;;1.22;88.26
73297;BME280;61524;50.938;11.396;2023-04-10T04:12:26;99853.66;;;1.29;87.97
73297;BME280;61524;50.938;11.396;2023-04-10T04:14:52;99868.47;;;1.30;87.84
73297;BME280;61524;50.938;11.396;2023-04-10T04:17:17;99862.22;;;1.31;87.93
73297;BME280;61524;50.938;11.396;2023-04-10T04:19:43;99856.97;;;1.31;87.91
73297;BME280;61524;50.938;11.396;2023-04-10T04:22:09;99851.03;;;1.29;87.25
73297;BME280;61524;50.938;11.396;2023-04-10T04:24:35;99849.88;;;1.31;87.49
73297;BME280;61524;50.938;11.396;2023-04-10T04:27:00;99864.00;;;1.39;87.73
73297;BME280;61524;50.938;11.396;2023-04-10T04:29:27;99866.00;;;1.28;87.62
73297;BME280;61524;50.938;11.396;2023-04-10T04:31:52;99859.75;;;0.97;88.44
73297;BME280;61524;50.938;11.396;2023-04-10T04:34:18;99856.81;;;0.92;88.39
73297;BME280;61524;50.938;11.396;2023-04-10T04:36:43;99867.34;;;0.92;88.26
73297;BME280;61524;50.938;11.396;2023-04-10T04:39:08;99854.66;;;0.79;88.66
73297;BME280;61524;50.938;11.396;2023-04-10T04:41:34;99862.41;;;0.89;88.50
73297;BME280;61524;50.938;11.396;2023-04-10T04:44:03;99863.72;;;0.76;89.56
73297;BME280;61524;50.938;11.396;2023-04-10T04:46:29;99860.09;;;1.02;89.05
73297;BME280;61524;50.938;11.396;2023-04-10T04:48:55;99850.22;;;1.20;88.33
73297;BME280;61524;50.938;11.396;2023-04-10T04:51:20;99865.03;;;1.21;87.83
73297;BME280;61524;50.938;11.396;2023-04-10T04:53:46;99860.59;;;1.30;87.23
73297;BME280;61524;50.938;11.396;2023-04-10T04:56:11;99875.19;;;1.49;87.02
73297;BME280;61524;50.938;11.396;2023-04-10T04:58:37;99866.50;;;1.40;87.38
73297;BME280;61524;50.938;11.396;2023-04-10T05:01:02;99866.81;;;1.37;87.22
73297;BME280;61524;50.938;11.396;2023-04-10T05:03:28;99865.78;;;1.54;87.19
73297;BME280;61524;50.938;11.396;2023-04-10T05:05:54;99871.06;;;1.63;86.39
73297;BME280;61524;50.938;11.396;2023-04-10T05:08:19;99868.56;;;1.69;86.46
73297;BME280;61524;50.938;11.396;2023-04-10T05:10:45;99878.78;;;1.72;86.23
73297;BME280;61524;50.938;11.396;2023-04-10T05:13:11;99861.75;;;1.91;86.95
73297;BME280;61524;50.938;11.396;2023-04-10T05:15:36;99873.59;;;2.34;85.83
73297;BME280;61524;50.938;11.396;2023-04-10T05:18:03;99871.22;;;2.48;85.71
73297;BME280;61524;50.938;11.396;2023-04-10T05:20:29;99861.50;;;2.71;85.29
73297;BME280;61524;50.938;11.396;2023-04-10T05:22:54;99869.81;;;3.06;84.49
73297;BME280;61524;50.938;11.396;2023-04-10T05:25:19;99864.59;;;3.21;83.93
73297;BME280;61524;50.938;11.396;2023-04-10T05:27:45;99873.13;;;3.46;83.27
73297;BME280;61524;50.938;11.396;2023-04-10T05:30:11;99870.03;;;3.57;83.00
73297;BME280;61524;50.938;11.396;2023-04-10T05:32:36;99873.59;;;3.64;82.75
73297;BME280;61524;50.938;11.396;2023-04-10T05:35:02;99871.66;;;3.87;82.70
73297;BME280;61524;50.938;11.396;2023-04-10T05:37:27;99875.75;;;4.19;81.98
73297;BME280;61524;50.938;11.396;2023-04-10T05:39:53;99866.06;;;4.41;81.68
73297;BME280;61524;50.938;11.396;2023-04-10T05:42:18;99872.91;;;4.72;81.01
73297;BME280;61524;50.938;11.396;2023-04-10T05:44:44;99872.13;;;4.57;81.86
73297;BME280;61524;50.938;11.396;2023-04-10T05:47:09;99864.84;;;4.80;81.90
73297;BME280;61524;50.938;11.396;2023-04-10T05:49:35;99869.09;;;5.24;81.65
73297;BME280;61524;50.938;11.396;2023-04-10T05:52:00;99872.78;;;5.51;80.40
73297;BME280;61524;50.938;11.396;2023-04-10T05:54:26;99876.97;;;5.67;79.56
73297;BME280;61524;50.938;11.396;2023-04-10T05:56:51;99876.63;;;6.04;79.38
73297;BME280;61524;50.938;11.396;2023-04-10T05:59:17;99867.88;;;5.76;78.96
73297;BME280;61524;50.938;11.396;2023-04-10T06:01:43;99880.53;;;6.09;79.36
73297;BME280;61524;50.938;11.396;2023-04-10T06:04:08;99867.16;;;6.37;78.34
73297;BME280;61524;50.938;11.396;2023-04-10T06:06:34;99867.78;;;6.45;78.79
73297;BME280;61524;50.938;11.396;2023-04-10T06:08:59;99869.69;;;6.65;78.05
73297;BME280;61524;50.938;11.396;2023-04-10T06:11:25;99860.75;;;6.92;77.84
73297;BME280;61524;50.938;11.396;2023-04-10T06:13:50;99862.03;;;7.16;78.09
73297;BME280;61524;50.938;11.396;2023-04-10T06:16:16;99864.03;;;6.88;78.14
73297;BME280;61524;50.938;11.396;2023-04-10T06:18:41;99864.47;;;7.18;77.74
73297;BME280;61524;50.938;11.396;2023-04-10T06:21:07;99860.59;;;7.07;78.00
73297;BME280;61524;50.938;11.396;2023-04-10T06:23:33;99854.84;;;7.50;76.83
73297;BME280;61524;50.938;11.396;2023-04-10T06:25:59;99855.00;;;7.68;76.41
73297;BME280;61524;50.938;11.396;2023-04-10T06:28:25;99857.03;;;7.93;75.62
73297;BME280;61524;50.938;11.396;2023-04-10T06:30:50;99849.34;;;8.16;75.16
73297;BME280;61524;50.938;11.396;2023-04-10T06:33:16;99849.94;;;8.25;74.35
73297;BME280;61524;50.938;11.396;2023-04-10T06:35:41;99850.31;;;8.35;74.73
73297;BME280;61524;50.938;11.396;2023-04-10T06:38:07;99855.56;;;8.61;74.71
73297;BME280;61524;50.938;11.396;2023-04-10T06:40:32;99845.34;;;9.15;72.75
73297;BME280;61524;50.938;11.396;2023-04-10T06:42:59;99852.97;;;9.11;71.10
73297;BME280;61524;50.938;11.396;2023-04-10T06:45:25;99858.38;;;8.98;72.18
73297;BME280;61524;50.938;11.396;2023-04-10T06:47:50;99858.44;;;9.41;71.56
73297;BME280;61524;50.938;11.396;2023-04-10T06:50:16;99847.91;;;9.90;69.88
73297;BME280;61524;50.938;11.396;2023-04-10T06:52:43;99839.75;;;10.40;68.24
73297;BME280;61524;50.938;11.396;2023-04-10T06:55:08;99852.25;;;10.88;67.23
73297;BME280;61524;50.938;11.396;2023-04-10T06:57:34;99846.53;;;11.26;65.69
73297;BME280;61524;50.938;11.396;2023-04-10T06:59:59;99850.25;;;11.37;66.76
73297;BME280;61524;50.938;11.396;2023-04-10T07:02:25;99846.88;;;11.88;65.99
73297;BME280;61524;50.938;11.396;2023-04-10T07:04:50;99853.38;;;12.04;65.27
73297;BME280;61524;50.938;11.396;2023-04-10T07:07:16;99851.38;;;12.23;65.14
73297;BME280;61524;50.938;11.396;2023-04-10T07:09:43;99849.44;;;11.48;67.08
73297;BME280;61524;50.938;11.396;2023-04-10T07:12:09;99844.78;;;11.55;67.89
73297;BME280;61524;50.938;11.396;2023-04-10T07:14:34;99840.34;;;11.72;66.79
73297;BME280;61524;50.938;11.396;2023-04-10T07:17:00;99839.44;;;12.30;65.88
73297;BME280;61524;50.938;11.396;2023-04-10T07:19:26;99833.78;;;12.55;64.51
73297;BME280;61524;50.938;11.396;2023-04-10T07:21:51;99823.63;;;13.03;63.50
73297;BME280;61524;50.938;11.396;2023-04-10T07:24:17;99832.84;;;13.41;59.86
73297;BME280;61524;50.938;11.396;2023-04-10T07:26:46;99828.63;;;12.82;63.17
73297;BME280;61524;50.938;11.396;2023-04-10T07:29:12;99823.13;;;13.06;62.07
73297;BME280;61524;50.938;11.396;2023-04-10T07:31:38;99817.69;;;13.90;60.71
73297;BME280;61524;50.938;11.396;2023-04-10T07:34:04;99818.06;;;13.60;61.84
73297;BME280;61524;50.938;11.396;2023-04-10T07:36:29;99809.28;;;13.86;61.57
73297;BME280;61524;50.938;11.396;2023-04-10T07:38:56;99814.44;;;14.10;59.86
73297;BME280;61524;50.938;11.396;2023-04-10T07:41:21;99804.03;;;13.36;59.80
73297;BME280;61524;50.938;11.396;2023-04-10T07:43:48;99797.50;;;13.87;58.32
73297;BME280;61524;50.938;11.396;2023-04-10T07:46:13;99803.78;;;13.76;58.44
73297;BME280;61524;50.938;11.396;2023-04-10T07:48:39;99810.09;;;14.53;57.15
73297;BME280;61524;50.938;11.396;2023-04-10T07:51:05;99800.16;;;14.09;57.84
73297;BME280;61524;50.938;11.396;2023-04-10T07:53:34;99808.00;;;14.11;56.45
73297;BME280;61524;50.938;11.396;2023-04-10T07:56:00;99803.94;;;14.08;56.77
73297;BME280;61524;50.938;11.396;2023-04-10T07:58:26;99792.88;;;14.05;56.07
73297;BME280;61524;50.938;11.396;2023-04-10T08:00:51;99786.31;;;14.44;56.36
73297;BME280;61524;50.938;11.396;2023-04-10T08:03:16;99788.19;;;14.17;56.58
73297;BME280;61524;50.938;11.396;2023-04-10T08:05:42;99782.97;;;14.54;57.53
73297;BME280;61524;50.938;11.396;2023-04-10T08:08:07;99781.63;;;14.57;54.57
73297;BME280;61524;50.938;11.396;2023-04-10T08:10:35;99771.25;;;14.43;54.29
73297;BME280;61524;50.938;11.396;2023-04-10T08:13:02;99773.03;;;14.33;54.34
73297;BME280;61524;50.938;11.396;2023-04-10T08:15:27;99782.56;;;14.45;54.17
73297;BME280;61524;50.938;11.396;2023-04-10T08:17:52;99773.59;;;14.35;54.43
73297;BME280;61524;50.938;11.396;2023-04-10T08:20:18;99779.00;;;14.40;54.03
73297;BME280;61524;50.938;11.396;2023-04-10T08:22:43;99774.34;;;14.30;54.33
73297;BME280;61524;50.938;11.396;2023-04-10T08:25:09;99770.94;;;14.40;54.84
73297;BME280;61524;50.938;11.396;2023-04-10T08:27:34;99769.81;;;14.36;54.38
73297;BME280;61524;50.938;11.396;2023-04-10T08:30:00;99772.22;;;14.54;54.20
73297;BME280;61524;50.938;11.396;2023-04-10T08:32:27;99776.63;;;14.65;54.38
73297;BME280;61524;50.938;11.396;2023-04-10T08:34:53;99779.84;;;14.67;53.55
73297;BME280;61524;50.938;11.396;2023-04-10T08:37:18;99780.94;;;14.99;54.14
73297;BME280;61524;50.938;11.396;2023-04-10T08:39:45;99780.88;;;14.93;52.94
73297;BME280;61524;50.938;11.396;2023-04-10T08:42:10;99776.81;;;15.23;52.92
73297;BME280;61524;50.938;11.396;2023-04-10T08:44:36;99772.88;;;14.44;53.27
73297;BME280;61524;50.938;11.396;2023-04-10T08:47:02;99779.25;;;14.60;54.15
73297;BME280;61524;50.938;11.396;2023-04-10T08:52:19;99782.34;;;15.11;51.02
73297;BME280;61524;50.938;11.396;2023-04-10T08:54:49;99779.84;;;15.37;51.09
73297;BME280;61524;50.938;11.396;2023-04-10T08:57:16;99768.84;;;15.43;51.44
73297;BME280;61524;50.938;11.396;2023-04-10T08:59:44;99777.00;;;14.79;55.04
73297;BME280;61524;50.938;11.396;2023-04-10T09:02:09;99767.03;;;15.12;52.75
73297;BME280;61524;50.938;11.396;2023-04-10T09:04:35;99761.38;;;15.08;53.37
73297;BME280;61524;50.938;11.396;2023-04-10T09:07:00;99758.91;;;15.02;52.68
73297;BME280;61524;50.938;11.396;2023-04-10T09:09:26;99747.75;;;14.88;52.42
73297;BME280;61524;50.938;11.396;2023-04-10T09:14:28;99751.84;;;15.38;52.39
73297;BME280;61524;50.938;11.396;2023-04-10T09:17:11;99750.09;;;15.16;54.34
73297;BME280;61524;50.938;11.396;2023-04-10T09:19:36;99736.09;;;15.14;52.82
73297;BME280;61524;50.938;11.396;2023-04-10T09:22:02;99742.13;;;14.94;52.50
73297;BME280;61524;50.938;11.396;2023-04-10T09:24:27;99743.41;;;15.19;53.11
73297;BME280;61524;50.938;11.396;2023-04-10T09:26:53;99733.09;;;15.11;52.01
73297;BME280;61524;50.938;11.396;2023-04-10T09:29:19;99731.47;;;15.52;52.07
73297;BME280;61524;50.938;11.396;2023-04-10T09:31:47;99722.81;;;15.45;51.92
73297;BME280;61524;50.938;11.396;2023-04-10T09:34:21;99723.25;;;15.74;51.43
73297;BME280;61524;50.938;11.396;2023-04-10T09:36:54;99721.09;;;15.76;51.72
73297;BME280;61524;50.938;11.396;2023-04-10T09:39:21;99717.09;;;15.84;51.33
73297;BME280;61524;50.938;11.396;2023-04-10T09:41:51;99714.41;;;15.84;52.32
73297;BME280;61524;50.938;11.396;2023-04-10T09:44:43;99705.22;;;15.85;52.58
73297;BME280;61524;50.938;11.396;2023-04-10T09:47:16;99696.59;;;15.78;54.92
73297;BME280;61524;50.938;11.396;2023-04-10T09:49:50;99697.41;;;15.26;54.74
73297;BME280;61524;50.938;11.396;2023-04-10T09:52:23;99686.31;;;15.17;53.49
73297;BME280;61524;50.938;11.396;2023-04-10T09:54:54;99676.69;;;15.31;55.38
73297;BME280;61524;50.938;11.396;2023-04-10T09:57:21;99675.91;;;15.36;53.32
73297;BME280;61524;50.938;11.396;2023-04-10T09:59:51;99671.22;;;15.63;52.26
73297;BME280;61524;50.938;11.396;2023-04-10T10:02:19;99678.81;;;15.24;54.56
73297;BME280;61524;50.938;11.396;2023-04-10T10:04:46;99656.75;;;15.27;54.00
73297;BME280;61524;50.938;11.396;2023-04-10T10:07:14;99675.09;;;15.30;53.13
73297;BME280;61524;50.938;11.396;2023-04-10T10:09:41;99661.25;;;15.69;52.27
73297;BME280;61524;50.938;11.396;2023-04-10T10:12:11;99664.78;;;15.80;51.42
73297;BME280;61524;50.938;11.396;2023-04-10T10:15:08;99652.16;;;15.90;51.28
73297;BME280;61524;50.938;11.396;2023-04-10T10:20:43;99643.94;;;15.60;53.98
73297;BME280;61524;50.938;11.396;2023-04-10T10:23:09;99633.81;;;15.77;52.95
73297;BME280;61524;50.938;11.396;2023-04-10T10:25:35;99621.38;;;15.71;52.15
73297;BME280;61524;50.938;11.396;2023-04-10T10:28:03;99636.22;;;15.73;50.70
73297;BME280;61524;50.938;11.396;2023-04-10T10:30:31;99621.88;;;15.58;52.35
73297;BME280;61524;50.938;11.396;2023-04-10T10:32:58;99617.56;;;15.62;51.78
73297;BME280;61524;50.938;11.396;2023-04-10T10:35:25;99617.06;;;15.65;52.15
73297;BME280;61524;50.938;11.396;2023-04-10T10:37:52;99612.13;;;15.46;51.64
73297;BME280;61524;50.938;11.396;2023-04-10T10:46:08;99620.91;;;16.35;49.90
73297;BME280;61524;50.938;11.396;2023-04-10T10:48:35;99607.94;;;15.86;49.56
73297;BME280;61524;50.938;11.396;2023-04-10T10:51:00;99592.09;;;16.25;50.15
73297;BME280;61524;50.938;11.396;2023-04-10T10:53:37;99605.53;;;16.66;50.72
73297;BME280;61524;50.938;11.396;2023-04-10T10:58:49;99605.56;;;16.00;50.91
73297;BME280;61524;50.938;11.396;2023-04-10T11:01:15;99602.03;;;16.30;52.37
73297;BME280;61524;50.938;11.396;2023-04-10T11:03:41;99589.13;;;16.32;49.05
73297;BME280;61524;50.938;11.396;2023-04-10T11:06:18;99592.31;;;16.54;52.79
73297;BME280;61524;50.938;11.396;2023-04-10T11:08:51;99595.84;;;16.30;52.20
73297;BME280;61524;50.938;11.396;2023-04-10T11:11:18;99578.84;;;16.75;54.46
73297;BME280;61524;50.938;11.396;2023-04-10T11:16:14;99585.94;;;17.25;49.41
73297;BME280;61524;50.938;11.396;2023-04-10T11:21:15;99565.09;;;16.41;48.94
73297;BME280;61524;50.938;11.396;2023-04-10T11:31:57;99545.41;;;16.35;49.08
73297;BME280;61524;50.938;11.396;2023-04-10T11:34:22;99548.09;;;16.30;50.00
73297;BME280;61524;50.938;11.396;2023-04-10T11:36:48;99535.19;;;16.37;48.98
73297;BME280;61524;50.938;11.396;2023-04-10T11:39:15;99537.88;;;16.07;47.29
73297;BME280;61524;50.938;11.396;2023-04-10T11:44:17;99540.00;;;16.45;45.75
73297;BME280;61524;50.938;11.396;2023-04-10T11:46:46;99541.03;;;16.80;47.71
73297;BME280;61524;50.938;11.396;2023-04-10T11:49:19;99532.66;;;16.66;47.22
73297;BME280;61524;50.938;11.396;2023-04-10T11:51:47;99527.28;;;16.66;44.75
73297;BME280;61524;50.938;11.396;2023-04-10T11:54:15;99523.50;;;16.72;45.08
73297;BME280;61524;50.938;11.396;2023-04-10T11:56:43;99520.03;;;16.51;46.40
73297;BME280;61524;50.938;11.396;2023-04-10T11:59:09;99505.41;;;16.73;47.43
73297;BME280;61524;50.938;11.396;2023-04-10T12:01:40;99495.47;;;16.58;47.46
73297;BME280;61524;50.938;11.396;2023-04-10T12:04:16;99498.59;;;16.96;49.44
73297;BME280;61524;50.938;11.396;2023-04-10T12:06:44;99492.97;;;16.82;47.69
73297;BME280;61524;50.938;11.396;2023-04-10T12:09:14;99488.53;;;17.12;45.93
73297;BME280;61524;50.938;11.396;2023-04-10T12:16:57;99472.22;;;16.77;45.27
73297;BME280;61524;50.938;11.396;2023-04-10T12:19:22;99479.53;;;16.57;43.32
73297;BME280;61524;50.938;11.396;2023-04-10T12:21:48;99458.41;;;16.84;44.52
73297;BME280;61524;50.938;11.396;2023-04-10T12:27:05;99457.66;;;16.73;44.69
73297;BME280;61524;50.938;11.396;2023-04-10T12:29:31;99455.00;;;16.63;45.57
73297;BME280;61524;50.938;11.396;2023-04-10T12:31:56;99446.59;;;16.70;47.35
73297;BME280;61524;50.938;11.396;2023-04-10T12:34:22;99436.88;;;16.69;46.10
73297;BME280;61524;50.938;11.396;2023-04-10T12:36:53;99440.16;;;16.56;47.16
73297;BME280;61524;50.938;11.396;2023-04-10T12:39:23;99430.38;;;16.80;48.41
73297;BME280;61524;50.938;11.396;2023-04-10T12:41:49;99424.94;;;16.90;47.26
73297;BME280;61524;50.938;11.396;2023-04-10T12:44:14;99423.94;;;16.76;46.13
73297;BME280;61524;50.938;11.396;2023-04-10T12:46:41;99414.75;;;16.67;46.70
73297;BME280;61524;50.938;11.396;2023-04-10T12:49:11;99420.31;;;16.96;47.58
73297;BME280;61524;50.938;11.396;2023-04-10T12:54:31;99393.63;;;16.84;46.21
73297;BME280;61524;50.938;11.396;2023-04-10T12:56:58;99400.03;;;17.38;45.60
73297;BME280;61524;50.938;11.396;2023-04-10T12:59:24;99396.63;;;17.22;47.29
73297;BME280;61524;50.938;11.396;2023-04-10T13:01:51;99390.03;;;17.04;48.89
73297;BME280;61524;50.938;11.396;2023-04-10T13:04:17;99383.88;;;16.93;48.45
73297;BME280;61524;50.938;11.396;2023-04-10T13:06:46;99374.31;;;16.62;46.71
73297;BME280;61524;50.938;11.396;2023-04-10T13:09:13;99372.53;;;16.47;47.95
73297;BME280;61524;50.938;11.396;2023-04-10T13:11:39;99371.69;;;16.46;47.39
73297;BME280;61524;50.938;11.396;2023-04-10T13:14:05;99363.75;;;16.70;48.57
73297;BME280;61524;50.938;11.396;2023-04-10T13:16:30;99358.75;;;16.98;49.19
73297;BME280;61524;50.938;11.396;2023-04-10T13:18:56;99348.84;;;16.83;49.13
73297;BME280;61524;50.938;11.396;2023-04-10T13:21:21;99349.75;;;16.68;49.00
73297;BME280;61524;50.938;11.396;2023-04-10T13:23:50;99347.00;;;17.18;46.41
73297;BME280;61524;50.938;11.396;2023-04-10T13:26:16;99343.19;;;16.85;47.77
73297;BME280;61524;50.938;11.396;2023-04-10T13:28:41;99336.56;;;17.06;47.37
73297;BME280;61524;50.938;11.396;2023-04-10T13:31:07;99331.56;;;16.84;50.54
73297;BME280;61524;50.938;11.396;2023-04-10T13:33:32;99330.47;;;16.90;48.88
73297;BME280;61524;50.938;11.396;2023-04-10T13:35:58;99329.59;;;16.50;48.34
73297;BME280;61524;50.938;11.396;2023-04-10T13:38:23;99325.66;;;16.82;48.77
73297;BME280;61524;50.938;11.396;2023-04-10T13:40:48;99320.16;;;16.97;50.26
73297;BME280;61524;50.938;11.396;2023-04-10T13:43:14;99319.66;;;17.24;50.07
73297;BME280;61524;50.938;11.396;2023-04-10T13:45:40;99316.03;;;17.39;51.54
73297;BME280;61524;50.938;11.396;2023-04-10T13:48:05;99314.75;;;17.61;48.66